createdAt,value
2023-01-25T00:01:06.698Z,2.05
2023-01-25T00:03:35.042Z,2.50
2023-01-25T00:06:04.944Z,2.08
2023-01-25T00:08:35.019Z,2.42
2023-01-25T00:11:03.264Z,2.20
2023-01-25T00:13:31.772Z,2.40
2023-01-25T00:16:03.110Z,2.38
2023-01-25T00:18:31.637Z,2.22
2023-01-25T00:20:59.946Z,2.53
2023-01-25T00:23:29.494Z,2.33
2023-01-25T00:25:58.975Z,2.13
2023-01-25T00:28:27.354Z,2.50
2023-01-25T00:31:18.341Z,2.40
2023-01-25T00:34:46.209Z,2.08
2023-01-25T00:37:25.736Z,2.28
2023-01-25T00:39:55.877Z,2.22
2023-01-25T00:42:24.224Z,2.00
2023-01-25T00:44:52.599Z,2.10
2023-01-25T00:47:21.928Z,2.28
2023-01-25T00:49:50.394Z,2.10
2023-01-25T00:52:18.786Z,2.05
2023-01-25T00:54:47.037Z,2.15
2023-01-25T00:57:16.670Z,2.30
2023-01-25T00:59:45.902Z,1.90
2023-01-25T01:02:15.620Z,2.40
2023-01-25T01:04:43.980Z,2.15
2023-01-25T01:07:49.509Z,2.30
2023-01-25T01:11:36.680Z,2.47
2023-01-25T01:22:31.096Z,2.30
2023-01-25T01:24:59.357Z,2.20
2023-01-25T01:27:27.613Z,2.22
2023-01-25T01:29:55.873Z,2.00
2023-01-25T01:32:24.428Z,2.30
2023-01-25T01:34:53.358Z,2.00
2023-01-25T01:37:21.691Z,2.33
2023-01-25T01:39:52.790Z,2.45
2023-01-25T01:42:21.036Z,2.17
2023-01-25T01:44:51.512Z,1.92
2023-01-25T01:47:26.592Z,2.10
2023-01-25T01:50:03.881Z,1.80
2023-01-25T01:52:37.095Z,2.47
2023-01-25T01:55:10.220Z,2.20
2023-01-25T01:57:43.304Z,2.47
2023-01-25T02:00:16.317Z,2.50
2023-01-25T02:02:47.221Z,2.08
2023-01-25T02:05:21.146Z,2.30
2023-01-25T02:07:52.108Z,2.20
2023-01-25T02:10:25.118Z,2.58
2023-01-25T02:12:56.756Z,2.70
2023-01-25T02:15:28.776Z,2.60
2023-01-25T02:17:56.999Z,2.45
2023-01-25T02:20:29.694Z,2.20
2023-01-25T02:23:04.506Z,2.10
2023-01-25T02:25:34.356Z,2.25
2023-01-25T02:28:08.160Z,2.00
2023-01-25T02:30:36.548Z,2.40
2023-01-25T02:33:04.944Z,2.30
2023-01-25T02:35:42.503Z,2.20
2023-01-25T02:38:12.380Z,2.25
2023-01-25T02:40:47.747Z,2.22
2023-01-25T02:43:17.916Z,2.22
2023-01-25T02:45:50.414Z,2.03
2023-01-25T02:48:18.651Z,2.28
2023-01-25T02:50:46.898Z,2.05
2023-01-25T02:53:15.112Z,2.28
2023-01-25T02:55:45.293Z,2.75
2023-01-25T02:58:13.570Z,2.20
2023-01-25T03:00:41.899Z,2.10
2023-01-25T03:03:10.199Z,2.20
2023-01-25T03:05:38.367Z,2.50
2023-01-25T03:08:07.142Z,2.55
2023-01-25T03:10:35.965Z,2.53
2023-01-25T03:13:06.161Z,2.38
2023-01-25T03:15:34.578Z,2.15
2023-01-25T03:18:04.463Z,2.20
2023-01-25T03:20:32.888Z,2.13
2023-01-25T03:23:01.127Z,2.60
2023-01-25T03:25:30.056Z,2.10
2023-01-25T03:28:06.838Z,2.17
2023-01-25T03:30:35.148Z,2.00
2023-01-25T03:33:03.738Z,2.00
2023-01-25T03:35:32.059Z,2.28
2023-01-25T03:38:00.443Z,2.30
2023-01-25T03:40:29.238Z,2.20
2023-01-25T03:42:57.715Z,1.98
2023-01-25T03:45:27.754Z,2.17
2023-01-25T03:47:56.281Z,2.10
2023-01-25T03:50:24.439Z,2.30
2023-01-25T03:52:59.329Z,2.10
2023-01-25T03:55:29.269Z,2.17
2023-01-25T03:57:57.569Z,2.20
2023-01-25T04:00:28.998Z,2.10
2023-01-25T04:03:01.475Z,2.22
2023-01-25T04:05:30.856Z,2.42
2023-01-25T04:07:59.058Z,2.20
2023-01-25T04:10:35.430Z,2.20
2023-01-25T04:13:03.890Z,2.28
2023-01-25T04:15:33.735Z,2.53
2023-01-25T04:18:08.413Z,2.03
2023-01-25T04:20:36.739Z,2.00
2023-01-25T04:23:07.035Z,2.00
2023-01-25T04:25:39.295Z,2.40
2023-01-25T04:28:32.351Z,2.08
2023-01-25T04:31:03.588Z,2.10
2023-01-25T04:33:36.686Z,2.50
2023-01-25T04:36:05.916Z,2.10
2023-01-25T04:38:34.257Z,2.40
2023-01-25T04:41:04.128Z,2.20
2023-01-25T04:43:32.713Z,2.25
2023-01-25T04:46:08.170Z,2.40
2023-01-25T04:48:36.453Z,2.13
2023-01-25T04:51:09.443Z,1.95
2023-01-25T04:53:37.815Z,2.47
2023-01-25T04:56:08.319Z,2.00
2023-01-25T04:58:45.244Z,2.10
2023-01-25T05:01:15.066Z,2.25
2023-01-25T05:03:43.512Z,2.10
2023-01-25T05:06:22.190Z,2.28
2023-01-25T05:08:50.457Z,2.08
2023-01-25T05:11:18.637Z,2.00
2023-01-25T05:14:00.714Z,2.30
2023-01-25T05:16:34.086Z,2.20
2023-01-25T05:19:02.901Z,2.03
2023-01-25T05:22:01.721Z,2.30
2023-01-25T05:24:45.727Z,2.28
2023-01-25T05:27:17.476Z,2.20
2023-01-25T05:30:06.581Z,2.05
2023-01-25T05:32:51.009Z,1.98
2023-01-25T05:35:19.732Z,2.30
2023-01-25T05:37:49.835Z,2.03
2023-01-25T05:40:23.330Z,1.80
2023-01-25T05:42:55.806Z,1.95
2023-01-25T05:45:25.751Z,2.13
2023-01-25T05:47:59.770Z,2.10
2023-01-25T05:50:28.926Z,2.30
2023-01-25T05:53:09.373Z,2.30
2023-01-25T05:55:38.997Z,2.05
2023-01-25T05:58:14.172Z,2.22
2023-01-25T06:00:43.227Z,1.90
2023-01-25T06:03:18.370Z,2.25
2023-01-25T06:05:47.135Z,2.20
2023-01-25T06:08:15.329Z,2.28
2023-01-25T06:10:47.539Z,2.08
2023-01-25T06:13:15.848Z,2.42
2023-01-25T06:15:44.413Z,2.03
2023-01-25T06:18:34.397Z,2.30
2023-01-25T06:21:21.151Z,2.35
2023-01-25T06:23:49.419Z,1.75
2023-01-25T06:26:17.708Z,2.50
2023-01-25T06:28:45.921Z,2.10
2023-01-25T06:31:16.264Z,2.15
2023-01-25T06:33:49.918Z,2.10
2023-01-25T06:36:20.971Z,2.10
2023-01-25T06:38:50.605Z,1.80
2023-01-25T06:41:19.740Z,2.30
2023-01-25T06:43:48.901Z,2.45
2023-01-25T06:46:17.208Z,2.30
2023-01-25T06:48:46.879Z,2.25
2023-01-25T06:51:16.775Z,2.08
2023-01-25T06:53:46.852Z,2.10
2023-01-25T06:56:17.660Z,2.10
2023-01-25T06:58:46.159Z,1.95
2023-01-25T07:01:16.450Z,2.10
2023-01-25T07:03:48.883Z,1.80
2023-01-25T07:06:17.261Z,2.08
2023-01-25T07:08:45.744Z,2.08
2023-01-25T07:11:15.408Z,1.98
2023-01-25T07:13:45.723Z,2.00
2023-01-25T07:16:16.162Z,2.22
2023-01-25T07:18:46.139Z,2.15
2023-01-25T07:21:16.133Z,1.88
2023-01-25T07:23:45.117Z,1.80
2023-01-25T07:26:18.244Z,2.10
2023-01-25T07:28:47.441Z,2.25
2023-01-25T07:31:16.128Z,1.98
2023-01-25T07:33:48.652Z,1.90
2023-01-25T07:36:17.112Z,2.10
2023-01-25T07:38:45.314Z,1.77
2023-01-25T07:41:16.355Z,2.08
2023-01-25T07:43:44.672Z,2.13
2023-01-25T07:46:15.588Z,1.80
2023-01-25T07:48:48.391Z,1.88
2023-01-25T07:51:23.676Z,1.90
2023-01-25T07:53:54.101Z,2.35
2023-01-25T07:56:24.130Z,2.08
2023-01-25T07:58:53.897Z,1.90
2023-01-25T08:01:23.699Z,2.10
2023-01-25T08:03:54.187Z,2.00
2023-01-25T08:06:27.358Z,1.90
2023-01-25T08:08:56.342Z,1.83
2023-01-25T08:11:27.105Z,2.13
2023-01-25T08:13:55.555Z,1.90
2023-01-25T08:16:26.622Z,1.80
2023-01-25T08:18:57.687Z,1.95
2023-01-25T08:21:29.990Z,1.80
2023-01-25T08:23:59.244Z,2.00
2023-01-25T08:26:28.335Z,1.90
2023-01-25T08:28:57.239Z,2.10
2023-01-25T08:31:27.245Z,2.00
2023-01-25T08:33:57.392Z,2.22
2023-01-25T08:36:25.857Z,2.08
2023-01-25T08:38:56.812Z,1.80
2023-01-25T08:41:25.648Z,2.10
2023-01-25T08:43:55.429Z,2.00
2023-01-25T08:46:25.980Z,2.20
2023-01-25T08:48:56.560Z,2.30
2023-01-25T08:51:26.416Z,1.77
2023-01-25T08:53:54.907Z,1.90
2023-01-25T08:56:23.223Z,2.00
2023-01-25T08:58:52.143Z,1.80
2023-01-25T09:01:21.334Z,2.13
2023-01-25T09:03:51.394Z,2.00
2023-01-25T09:06:21.254Z,2.10
2023-01-25T09:08:49.804Z,2.38
2023-01-25T09:11:20.133Z,2.30
2023-01-25T09:13:49.074Z,1.88
2023-01-25T09:16:18.765Z,2.00
2023-01-25T09:18:49.807Z,2.00
2023-01-25T09:21:20.779Z,2.03
2023-01-25T09:23:57.458Z,2.10
2023-01-25T09:26:32.668Z,2.33
2023-01-25T09:29:01.141Z,2.15
2023-01-25T09:31:31.416Z,2.15
2023-01-25T09:34:12.353Z,2.03
2023-01-25T09:36:41.967Z,1.85
2023-01-25T09:39:12.169Z,1.90
2023-01-25T09:42:22.463Z,1.77
2023-01-25T09:45:11.708Z,1.63
2023-01-25T09:47:46.464Z,1.90
2023-01-25T09:50:47.166Z,1.88
2023-01-25T09:53:26.761Z,1.90
2023-01-25T09:55:58.703Z,1.92
2023-01-25T09:58:33.468Z,1.70
2023-01-25T10:01:14.654Z,1.73
2023-01-25T10:03:49.456Z,1.67
2023-01-25T10:06:20.279Z,1.85
2023-01-25T10:08:56.364Z,1.50
2023-01-25T10:11:28.005Z,1.83
2023-01-25T10:13:57.243Z,1.70
2023-01-25T10:16:30.858Z,1.80
2023-01-25T10:19:09.110Z,1.70
2023-01-25T10:21:42.147Z,1.80
2023-01-25T10:24:52.298Z,1.80
2023-01-25T10:27:30.052Z,1.73
2023-01-25T10:30:01.946Z,1.70
2023-01-25T10:32:32.479Z,1.98
2023-01-25T10:35:19.833Z,1.75
2023-01-25T10:37:54.919Z,1.60
2023-01-25T10:40:24.803Z,1.77
2023-01-25T10:43:00.157Z,1.73
2023-01-25T10:45:28.486Z,1.83
2023-01-25T10:48:03.114Z,1.85
2023-01-25T10:50:46.527Z,2.05
2023-01-25T10:53:27.911Z,1.88
2023-01-25T10:56:01.965Z,1.55
2023-01-25T10:58:37.422Z,2.03
2023-01-25T11:01:08.094Z,1.75
2023-01-25T11:03:38.910Z,2.03
2023-01-25T11:06:08.242Z,1.85
2023-01-25T11:08:38.610Z,1.85
2023-01-25T11:11:27.067Z,1.65
2023-01-25T11:13:56.771Z,2.00
2023-01-25T11:16:31.133Z,1.98
2023-01-25T11:19:01.268Z,1.65
2023-01-25T11:21:31.157Z,1.90
2023-01-25T11:24:05.471Z,1.92
2023-01-25T11:26:36.376Z,1.50
2023-01-25T11:29:13.703Z,1.70
2023-01-25T11:31:45.481Z,1.70
2023-01-25T11:34:15.946Z,1.60
2023-01-25T11:36:55.184Z,1.73
2023-01-25T11:39:39.536Z,1.77
2023-01-25T11:42:27.166Z,1.80
2023-01-25T11:45:34.746Z,1.50
2023-01-25T11:48:17.861Z,2.03
2023-01-25T11:50:52.064Z,1.80
2023-01-25T11:53:48.075Z,1.85
2023-01-25T11:56:25.424Z,1.77
2023-01-25T11:59:10.414Z,1.55
2023-01-25T12:02:04.740Z,1.80
2023-01-25T12:04:49.982Z,1.67
2023-01-25T12:07:23.621Z,1.70
2023-01-25T12:10:04.117Z,1.55
2023-01-25T12:12:42.942Z,2.13
2023-01-25T12:15:34.151Z,1.67
2023-01-25T12:18:29.758Z,1.85
2023-01-25T12:21:08.106Z,1.70
2023-01-25T12:24:01.360Z,1.88
2023-01-25T12:26:31.294Z,1.60
2023-01-25T12:29:06.677Z,1.63
2023-01-25T12:31:44.950Z,1.60
2023-01-25T12:34:20.527Z,1.70
2023-01-25T12:36:50.665Z,1.75
2023-01-25T12:39:24.392Z,1.90
2023-01-25T12:41:58.204Z,1.95
2023-01-25T12:44:30.977Z,1.77
2023-01-25T12:47:03.404Z,1.70
2023-01-25T12:49:39.400Z,1.95
2023-01-25T12:52:17.051Z,1.70
2023-01-25T12:54:47.227Z,1.85
2023-01-25T12:57:23.162Z,1.85
2023-01-25T13:00:01.777Z,1.88
2023-01-25T13:02:48.071Z,2.00
2023-01-25T13:05:26.517Z,1.52
2023-01-25T13:08:04.120Z,1.95
2023-01-25T13:10:37.534Z,1.83
2023-01-25T13:13:22.815Z,1.83
2023-01-25T13:15:51.458Z,2.00
2023-01-25T13:18:41.896Z,1.75
2023-01-25T13:21:41.633Z,1.73
2023-01-25T13:24:19.905Z,1.88
2023-01-25T13:26:50.843Z,1.90
2023-01-25T13:29:55.484Z,1.90
2023-01-25T13:32:56.691Z,1.67
2023-01-25T13:35:46.160Z,1.67
2023-01-25T13:38:37.418Z,1.80
2023-01-25T13:41:12.302Z,1.70
2023-01-25T13:43:43.450Z,2.03
2023-01-25T13:46:15.901Z,1.50
2023-01-25T13:49:00.022Z,2.00
2023-01-25T13:51:32.421Z,2.17
2023-01-25T13:54:02.442Z,1.90
2023-01-25T13:56:33.923Z,2.00
2023-01-25T13:59:02.609Z,1.98
2023-01-25T14:01:33.183Z,1.80
2023-01-25T14:04:05.633Z,1.70
2023-01-25T14:06:36.985Z,1.90
2023-01-25T14:09:16.675Z,2.05
2023-01-25T14:11:47.635Z,1.67
2023-01-25T14:14:21.542Z,1.77
2023-01-25T14:17:03.464Z,2.20
2023-01-25T14:19:33.481Z,2.00
2023-01-25T14:22:29.807Z,2.03
2023-01-25T14:25:18.163Z,2.10
2023-01-25T14:27:49.657Z,2.22
2023-01-25T14:30:21.436Z,2.33
2023-01-25T14:32:50.578Z,2.50
2023-01-25T14:35:54.753Z,2.50
2023-01-25T14:38:30.010Z,2.40
2023-01-25T14:41:03.295Z,2.80
2023-01-25T14:43:32.400Z,2.95
2023-01-25T14:46:00.703Z,2.85
2023-01-25T14:48:40.566Z,2.50
2023-01-25T14:51:16.722Z,2.85
2023-01-25T14:53:49.269Z,2.78
2023-01-25T14:56:33.586Z,2.85
2023-01-25T14:59:02.418Z,3.08
2023-01-25T15:01:34.064Z,3.45
2023-01-25T15:04:02.408Z,3.17
2023-01-25T15:06:30.767Z,3.35
2023-01-25T15:08:59.023Z,3.38
2023-01-25T15:11:45.384Z,3.25
2023-01-25T15:14:22.118Z,3.22
2023-01-25T15:16:50.397Z,3.13
2023-01-25T15:19:27.355Z,3.67
2023-01-25T15:21:57.481Z,3.58
2023-01-25T15:24:26.180Z,2.90
2023-01-25T15:26:57.016Z,3.25
2023-01-25T15:29:27.089Z,3.67
2023-01-25T15:31:57.168Z,3.53
2023-01-25T15:34:29.521Z,3.72
2023-01-25T15:36:57.789Z,4.15
2023-01-25T15:39:26.028Z,3.15
2023-01-25T15:41:55.699Z,3.28
2023-01-25T15:44:23.956Z,3.83
2023-01-25T15:46:53.659Z,3.65
2023-01-25T15:49:26.557Z,3.75
2023-01-25T15:51:55.117Z,3.40
2023-01-25T15:54:24.283Z,3.72
2023-01-25T15:56:56.399Z,4.20
2023-01-25T15:59:24.957Z,3.33
2023-01-25T16:01:53.276Z,3.38
2023-01-25T16:04:21.739Z,3.67
2023-01-25T16:06:52.107Z,3.55
2023-01-25T16:09:22.268Z,3.28
2023-01-25T16:11:52.877Z,3.42
2023-01-25T16:14:23.659Z,3.05
2023-01-25T16:16:53.511Z,3.13
2023-01-25T16:19:23.644Z,3.60
2023-01-25T16:21:52.659Z,3.47
2023-01-25T16:24:20.911Z,3.53
2023-01-25T16:26:52.639Z,3.58
2023-01-25T16:29:23.023Z,3.28
2023-01-25T16:31:51.669Z,3.45
2023-01-25T16:34:21.151Z,3.30
2023-01-25T16:36:51.166Z,3.45
2023-01-25T16:39:21.755Z,3.65
2023-01-25T16:41:50.747Z,3.15
2023-01-25T16:44:19.201Z,3.42
2023-01-25T16:46:50.219Z,3.40
2023-01-25T16:49:20.289Z,2.90
2023-01-25T16:51:49.029Z,3.28
2023-01-25T16:54:17.462Z,2.97
2023-01-25T16:56:45.694Z,3.05
2023-01-25T16:59:13.942Z,3.20
2023-01-25T17:01:42.542Z,2.92
2023-01-25T17:04:12.730Z,3.00
2023-01-25T17:06:43.756Z,2.70
2023-01-25T17:09:22.947Z,2.90
2023-01-25T17:11:52.197Z,2.90
2023-01-25T17:14:21.293Z,3.28
2023-01-25T17:16:51.557Z,2.78
2023-01-25T17:19:22.102Z,2.80
2023-01-25T17:21:50.592Z,2.97
2023-01-25T17:24:21.477Z,2.80
2023-01-25T17:26:50.818Z,3.13
2023-01-25T17:29:19.142Z,2.90
2023-01-25T17:31:47.436Z,3.20
2023-01-25T17:34:19.253Z,2.60
2023-01-25T17:36:50.059Z,2.88
2023-01-25T17:39:19.736Z,2.67
2023-01-25T17:41:50.350Z,2.50
2023-01-25T17:44:21.134Z,2.22
2023-01-25T17:46:49.761Z,2.78
2023-01-25T17:49:18.636Z,2.80
2023-01-25T17:51:48.322Z,2.47
2023-01-25T17:54:16.663Z,2.60
2023-01-25T17:56:45.141Z,2.70
2023-01-25T17:59:13.532Z,2.70
2023-01-25T18:01:43.726Z,2.70
2023-01-25T18:04:17.489Z,2.50
2023-01-25T18:06:45.837Z,2.50
2023-01-25T18:09:15.512Z,2.63
2023-01-25T18:11:43.773Z,2.60
2023-01-25T18:14:16.867Z,2.60
2023-01-25T18:16:45.469Z,2.70
2023-01-25T18:19:13.822Z,2.60
2023-01-25T18:21:43.302Z,2.50
2023-01-25T18:24:28.349Z,2.40
2023-01-25T18:27:05.101Z,2.45
2023-01-25T18:29:41.710Z,2.58
2023-01-25T18:32:10.026Z,2.38
2023-01-25T18:34:38.229Z,2.30
2023-01-25T18:37:17.734Z,2.60
2023-01-25T18:39:48.204Z,2.53
2023-01-25T18:42:16.600Z,2.25
2023-01-25T18:44:48.221Z,2.30
2023-01-25T18:47:18.664Z,2.45
2023-01-25T18:49:47.571Z,2.20
2023-01-25T18:52:16.638Z,2.40
2023-01-25T18:54:45.849Z,2.28
2023-01-25T18:57:15.992Z,2.40
2023-01-25T18:59:45.095Z,2.13
2023-01-25T19:02:14.529Z,2.38
2023-01-25T19:04:43.438Z,2.33
2023-01-25T19:07:11.706Z,2.13
2023-01-25T19:09:43.512Z,2.33
2023-01-25T19:12:14.841Z,2.20
2023-01-25T19:14:43.084Z,2.65
2023-01-25T19:17:11.423Z,2.30
2023-01-25T19:19:39.651Z,1.80
2023-01-25T19:22:07.897Z,2.13
2023-01-25T19:24:36.181Z,2.17
2023-01-25T19:27:04.534Z,2.10
2023-01-25T19:29:34.080Z,2.05
2023-01-25T19:32:02.229Z,2.20
2023-01-25T19:34:30.610Z,2.13
2023-01-25T19:36:58.913Z,2.13
2023-01-25T19:39:27.185Z,2.25
2023-01-25T19:41:55.538Z,2.08
2023-01-25T19:44:25.029Z,2.05
2023-01-25T19:46:54.672Z,2.10
2023-01-25T19:49:23.342Z,2.38
2023-01-25T19:51:53.757Z,2.35
2023-01-25T19:54:24.167Z,2.60
2023-01-25T19:56:52.550Z,2.05
2023-01-25T19:59:24.720Z,2.10
2023-01-25T20:01:54.434Z,2.20
2023-01-25T20:04:24.338Z,2.10
2023-01-25T20:06:53.095Z,1.90
2023-01-25T20:09:25.048Z,2.10
2023-01-25T20:11:56.461Z,1.92
2023-01-25T20:14:24.903Z,1.85
2023-01-25T20:16:54.486Z,1.92
2023-01-25T20:19:22.712Z,1.85
2023-01-25T20:21:51.006Z,2.30
2023-01-25T20:24:19.385Z,1.90
2023-01-25T20:26:47.725Z,2.10
2023-01-25T20:29:16.162Z,2.25
2023-01-25T20:31:45.878Z,2.40
2023-01-25T20:34:17.165Z,2.30
2023-01-25T20:36:46.059Z,1.90
2023-01-25T20:39:16.466Z,1.98
2023-01-25T20:41:45.244Z,1.65
2023-01-25T20:44:15.012Z,1.83
2023-01-25T20:46:43.983Z,1.80
2023-01-25T20:49:20.115Z,1.90
2023-01-25T20:51:48.714Z,1.90
2023-01-25T20:54:18.185Z,2.22
2023-01-25T20:56:47.947Z,1.85
2023-01-25T20:59:17.744Z,2.00
2023-01-25T21:01:46.712Z,1.98
2023-01-25T21:04:15.182Z,1.95
2023-01-25T21:06:44.891Z,2.10
2023-01-25T21:09:13.625Z,1.80
2023-01-25T21:11:42.085Z,2.00
2023-01-25T21:14:10.366Z,1.85
2023-01-25T21:16:38.608Z,2.15
2023-01-25T21:19:08.008Z,1.90
2023-01-25T21:21:38.203Z,1.95
2023-01-25T21:24:08.729Z,1.60
2023-01-25T21:26:38.326Z,1.77
2023-01-25T21:29:07.823Z,1.60
2023-01-25T21:31:37.261Z,2.00
2023-01-25T21:34:06.851Z,1.80
2023-01-25T21:36:35.043Z,2.05
2023-01-25T21:39:03.385Z,1.88
2023-01-25T21:41:34.365Z,1.70
2023-01-25T21:44:20.853Z,1.77
2023-01-25T21:47:16.286Z,1.90
2023-01-25T21:49:55.220Z,1.90
2023-01-25T21:52:23.543Z,1.88
2023-01-25T21:54:51.770Z,1.80
2023-01-25T21:57:21.355Z,1.92
2023-01-25T21:59:50.079Z,1.58
2023-01-25T22:02:19.272Z,1.60
2023-01-25T22:04:47.530Z,1.67
2023-01-25T22:07:15.772Z,1.80
2023-01-25T22:09:44.093Z,2.08
2023-01-25T22:12:12.830Z,1.50
2023-01-25T22:14:42.424Z,1.40
2023-01-25T22:17:10.626Z,1.85
2023-01-25T22:19:38.808Z,1.73
2023-01-25T22:22:07.064Z,1.80
2023-01-25T22:24:35.325Z,1.52
2023-01-25T22:27:42.284Z,1.58
2023-01-25T22:30:13.446Z,1.67
2023-01-25T22:32:41.974Z,1.60
2023-01-25T22:35:10.602Z,1.80
2023-01-25T22:37:38.903Z,1.55
2023-01-25T22:40:09.265Z,2.00
2023-01-25T22:42:37.946Z,1.80
2023-01-25T22:45:07.563Z,1.40
2023-01-25T22:47:37.210Z,1.60
2023-01-25T22:50:06.227Z,1.60
2023-01-25T22:52:34.426Z,2.00
2023-01-25T22:55:02.717Z,1.52
2023-01-25T22:57:30.920Z,1.50
2023-01-25T22:59:59.172Z,1.65
2023-01-25T23:02:27.295Z,1.58
2023-01-25T23:04:56.923Z,1.63
2023-01-25T23:07:25.263Z,1.88
2023-01-25T23:09:53.429Z,1.67
2023-01-25T23:12:21.681Z,1.63
2023-01-25T23:14:52.926Z,1.83
2023-01-25T23:17:39.672Z,1.80
2023-01-25T23:20:12.226Z,1.45
2023-01-25T23:22:41.002Z,1.70
2023-01-25T23:25:10.730Z,1.50
2023-01-25T23:27:39.392Z,1.75
2023-01-25T23:30:09.763Z,1.50
2023-01-25T23:32:38.296Z,1.73
2023-01-25T23:35:07.632Z,1.27
2023-01-25T23:37:37.216Z,1.58
2023-01-25T23:40:08.789Z,1.60
2023-01-25T23:42:37.242Z,1.60
2023-01-25T23:45:06.404Z,1.60
2023-01-25T23:47:34.731Z,1.67
2023-01-25T23:50:03.084Z,1.70
2023-01-25T23:52:31.730Z,1.63
2023-01-25T23:55:01.478Z,1.38
2023-01-25T23:57:29.806Z,1.50
2023-01-25T23:59:58.031Z,1.38
